Time;durP1;ratioP1;P1;durP2;ratioP2;P2;SDS_P1;SDS_P2;PMS_P1;PMS_P2;Temp;Humidity;BMP_temperature;BMP_pressure;BME280_temperature;BME280_humidity;BME280_pressure;Samples;Min_cycle;Max_cycle;Signal;HPM_P1;HPM_P2
2022/01/23 00:00:15;;;;;;;37.83;20.42;;;;;;;5.45;89.17;101711.97;5084420;28;20378;-85
2022/01/23 00:02:41;;;;;;;36.95;21.35;;;;;;;5.58;88.26;101699.69;5083223;28;20094;-85
2022/01/23 00:05:08;;;;;;;42.35;22.80;;;;;;;5.58;88.85;101710.50;5086939;28;20047;-86
2022/01/23 00:07:36;;;;;;;54.70;26.45;;;;;;;5.58;88.62;101705.09;5088708;28;20032;-84
2022/01/23 00:10:04;;;;;;;43.38;23.15;;;;;;;5.58;88.31;101696.97;5087625;28;20044;-86
2022/01/23 00:12:33;;;;;;;44.17;23.20;;;;;;;5.75;88.46;101688.69;5087095;28;20046;-85
2022/01/23 00:17:42;;;;;;;46.03;24.98;;;;;;;5.48;88.32;101684.56;5067399;28;20343;-86
2022/01/23 00:20:12;;;;;;;42.47;24.65;;;;;;;5.23;89.66;101687.47;5049714;28;20032;-86
2022/01/23 00:30:50;;;;;;;47.50;26.17;;;;;;;5.34;89.67;101685.34;5067224;28;19970;-84
2022/01/23 00:33:16;;;;;;;50.13;28.38;;;;;;;5.27;90.25;101681.72;5048802;28;20398;-86
2022/01/23 00:35:44;;;;;;;48.67;25.05;;;;;;;5.18;90.26;101694.44;5047982;28;20032;-86
2022/01/23 00:38:11;;;;;;;48.30;26.77;;;;;;;5.16;90.36;101693.78;5047050;28;20057;-86
2022/01/23 00:40:39;;;;;;;47.22;24.23;;;;;;;5.39;90.03;101685.63;5058724;28;20071;-86
2022/01/23 00:43:26;;;;;;;45.35;25.33;;;;;;;5.36;89.39;101691.44;5047526;28;20036;-85
2022/01/23 00:45:57;;;;;;;54.67;27.92;;;;;;;5.41;89.77;101682.78;5068092;28;20051;-86
2022/01/23 00:48:27;;;;;;;44.40;24.35;;;;;;;5.28;90.10;101686.09;5048900;28;20493;-85
2022/01/23 00:50:52;;;;;;;45.38;25.67;;;;;;;5.34;90.36;101693.47;5049584;28;20032;-86
2022/01/23 00:53:18;;;;;;;47.35;26.80;;;;;;;5.31;90.38;101694.66;5068147;28;20429;-86
2022/01/23 00:55:47;;;;;;;51.45;31.25;;;;;;;5.10;89.94;101692.66;5067541;28;20039;-86
2022/01/23 00:58:14;;;;;;;55.05;32.97;;;;;;;5.19;90.86;101699.66;5067560;28;20429;-86
2022/01/23 01:00:41;;;;;;;44.45;23.45;;;;;;;5.30;90.47;101714.63;5067296;28;20036;-85
2022/01/23 01:03:07;;;;;;;44.50;24.30;;;;;;;5.27;90.73;101698.75;5050140;28;20036;-86
2022/01/23 01:05:32;;;;;;;49.30;26.58;;;;;;;5.34;89.54;101696.19;5030181;28;20080;-85
2022/01/23 01:08:01;;;;;;;54.28;27.88;;;;;;;5.47;89.63;101692.88;5047313;28;20456;-85
2022/01/23 01:10:35;;;;;;;47.17;24.35;;;;;;;5.39;89.19;101692.94;5046295;28;20135;-86
2022/01/23 01:13:02;;;;;;;66.43;30.50;;;;;;;5.12;90.87;101687.91;5049623;28;20296;-86
2022/01/23 01:31:48;;;;;;;49.40;27.83;;;;;;;5.49;89.37;101691.63;5003246;28;20633;-86
2022/01/23 01:34:24;;;;;;;56.08;26.63;;;;;;;5.56;88.98;101685.50;5003578;28;20341;-85
2022/01/23 01:36:52;;;;;;;45.97;25.48;;;;;;;5.51;88.78;101677.94;5044879;28;20071;-85
2022/01/23 01:39:26;;;;;;;43.35;24.15;;;;;;;5.37;89.11;101683.13;5045281;28;20079;-85
2022/01/23 01:41:52;;;;;;;;;;;;;;;5.35;89.96;101674.34;5046523;28;20132;-85
2022/01/23 01:44:19;;;;;;;39.33;21.35;;;;;;;5.46;88.81;101669.53;5060476;28;19912;-86
2022/01/23 01:46:45;;;;;;;37.90;18.77;;;;;;;5.37;88.64;101671.44;5047433;28;20102;-86
2022/01/23 01:49:10;;;;;;;37.72;19.77;;;;;;;5.46;89.27;101664.97;5065152;28;20028;-86
2022/01/23 01:51:37;;;;;;;43.58;26.23;;;;;;;5.62;88.30;101660.41;5064437;28;20075;-87
2022/01/23 01:54:15;;;;;;;34.20;18.10;;;;;;;5.48;88.38;101665.63;5047459;28;20311;-86
2022/01/23 01:59:47;;;;;;;34.53;18.52;;;;;;;5.40;89.14;101654.88;5042971;28;20039;-86
2022/01/23 02:10:33;;;;;;;45.13;23.35;;;;;;;5.10;90.58;101671.03;5065199;28;20452;-85
2022/01/23 02:13:21;;;;;;;41.10;24.05;;;;;;;5.04;90.70;101677.16;5065755;28;20052;-85
2022/01/23 02:51:47;;;;;;;40.63;19.15;;;;;;;4.99;90.73;101670.41;5056490;28;20044;-85
2022/01/23 02:56:54;;;;;;;37.22;22.63;;;;;;;5.06;91.69;101678.66;5064077;28;20171;-85
2022/01/23 02:59:24;;;;;;;42.47;21.85;;;;;;;5.04;90.74;101677.16;5071999;28;20034;-86
2022/01/23 03:04:29;;;;;;;34.78;19.10;;;;;;;5.03;90.98;101676.28;5065876;28;20024;-86
2022/01/23 03:33:19;;;;;;;37.22;19.45;;;;;;;4.93;90.92;101692.75;5027480;28;20065;-86
2022/01/23 03:35:45;;;;;;;50.60;24.23;;;;;;;5.10;90.35;101698.06;5055913;28;20075;-85
2022/01/23 03:38:10;;;;;;;40.10;22.10;;;;;;;5.33;89.86;101692.63;5076760;28;20841;-86
2022/01/23 03:40:35;;;;;;;33.33;17.88;;;;;;;5.32;89.23;101701.78;5061847;28;20078;-86
2022/01/23 03:43:09;;;;;;;38.97;21.60;;;;;;;5.17;89.46;101699.00;5045165;28;20553;-86
2022/01/23 03:50:42;;;;;;;42.85;23.88;;;;;;;5.37;90.12;101695.78;5061843;28;20155;-86
2022/01/23 03:53:08;;;;;;;44.92;24.08;;;;;;;5.23;89.59;101703.69;5057722;28;20035;-86
2022/01/23 03:55:34;;;;;;;36.80;19.85;;;;;;;5.13;89.90;101701.22;5063011;28;20029;-86
2022/01/23 03:57:59;;;;;;;43.15;22.77;;;;;;;5.09;90.48;101708.03;5060184;28;20086;-85
2022/01/23 04:00:25;;;;;;;37.13;22.77;;;;;;;5.00;91.04;101701.81;5061790;28;20016;-85
2022/01/23 04:02:50;;;;;;;36.50;20.98;;;;;;;5.00;90.79;101706.41;5060860;28;20024;-86
2022/01/23 04:05:16;;;;;;;47.83;22.58;;;;;;;5.19;89.52;101707.78;5060581;28;20020;-86
2022/01/23 04:07:42;;;;;;;38.58;21.95;;;;;;;5.19;89.93;101706.94;5061763;28;20077;-86
2022/01/23 04:10:09;;;;;;;51.05;23.75;;;;;;;5.23;89.87;101708.25;5042309;28;20059;-86
2022/01/23 04:31:40;;;;;;;39.25;21.73;;;;;;;5.19;90.17;101712.34;5041665;28;20047;-85
2022/01/23 04:47:09;;;;;;;34.97;19.13;;;;;;;5.16;89.84;101710.00;5052338;28;20485;-86
2022/01/23 05:00:36;;;;;;;28.65;17.15;;;;;;;5.12;89.98;101704.13;5044871;28;20187;-85
2022/01/23 05:05:57;;;;;;;33.88;18.23;;;;;;;4.85;91.94;101711.72;5066650;28;20514;-86
2022/01/23 05:08:22;;;;;;;26.05;14.50;;;;;;;5.00;91.12;101706.41;5067328;28;20071;-86
2022/01/23 05:13:32;;;;;;;36.13;20.50;;;;;;;5.09;90.28;101705.31;5063536;28;20034;-86
2022/01/23 05:15:58;;;;;;;32.80;19.83;;;;;;;5.12;90.35;101709.53;5066224;28;20025;-86
2022/01/23 05:18:24;;;;;;;38.38;19.15;;;;;;;5.00;90.53;101709.94;5066362;28;20052;-85
2022/01/23 05:20:58;;;;;;;39.42;20.38;;;;;;;4.97;91.12;101720.28;5066771;28;20030;-86
2022/01/23 05:23:23;;;;;;;33.22;23.40;;;;;;;4.99;91.41;101713.66;5065950;28;20401;-86
2022/01/23 05:25:49;;;;;;;37.20;19.38;;;;;;;4.94;91.52;101721.50;5066691;28;20025;-86
2022/01/23 05:28:14;;;;;;;40.45;20.90;;;;;;;5.13;91.50;101720.16;5065144;28;20028;-85
2022/01/23 05:30:40;;;;;;;37.03;18.88;;;;;;;5.12;90.11;101714.94;5066805;28;20052;-86
2022/01/23 05:33:06;;;;;;;41.80;22.23;;;;;;;4.99;90.71;101724.50;5065485;28;20028;-86
2022/01/23 05:35:31;;;;;;;36.22;19.55;;;;;;;4.98;91.52;101717.38;5048554;28;20025;-85
2022/01/23 05:37:57;;;;;;;33.13;19.45;;;;;;;4.97;90.87;101721.13;5048124;28;20072;-86
2022/01/23 05:40:26;;;;;;;35.92;18.33;;;;;;;4.96;90.78;101726.72;5047570;28;20468;-86
2022/01/23 05:42:51;;;;;;;37.15;18.90;;;;;;;5.01;91.10;101717.03;5066542;28;20403;-86
2022/01/23 05:45:17;;;;;;;34.72;19.55;;;;;;;5.05;90.82;101725.63;5064884;28;20028;-84
2022/01/23 05:47:42;;;;;;;34.45;19.02;;;;;;;5.18;90.10;101721.50;5082738;28;20052;-86
2022/01/23 05:52:52;;;;;;;40.67;22.30;;;;;;;5.07;90.33;101736.25;5082271;28;20040;-86
2022/01/23 05:55:18;;;;;;;38.13;18.75;;;;;;;5.04;91.05;101733.94;5085945;28;20028;-86
2022/01/23 05:57:43;;;;;;;38.30;17.33;;;;;;;4.98;91.21;101727.38;5085576;28;20026;-85
2022/01/23 06:00:09;;;;;;;36.60;21.42;;;;;;;4.89;90.98;101731.97;5082582;28;20032;-85
2022/01/23 06:02:34;;;;;;;37.00;21.90;;;;;;;4.99;91.38;101735.31;5064363;28;20036;-86
2022/01/23 06:04:59;;;;;;;31.63;17.10;;;;;;;4.99;90.83;101735.31;5066320;28;20062;-85
2022/01/23 06:07:25;;;;;;;33.55;19.60;;;;;;;5.01;91.36;101738.66;5046318;28;20315;-85
2022/01/23 06:09:51;;;;;;;37.57;21.03;;;;;;;4.92;91.24;101734.34;5066006;28;20044;-86
2022/01/23 06:12:16;;;;;;;31.63;18.75;;;;;;;4.88;91.60;101739.25;5064737;28;20617;-86
2022/01/23 06:14:41;;;;;;;40.80;23.02;;;;;;;4.90;91.56;101730.97;5064736;28;20024;-86
2022/01/23 06:17:06;;;;;;;38.15;22.42;;;;;;;4.88;91.16;101730.31;5065735;28;20107;-86
2022/01/23 06:19:34;;;;;;;39.10;21.08;;;;;;;5.00;90.72;101736.97;5064683;28;20171;-86
2022/01/23 06:21:59;;;;;;;40.42;22.90;;;;;;;5.10;90.84;101728.66;5065899;28;20021;-84
2022/01/23 06:24:30;;;;;;;40.58;23.75;;;;;;;5.05;90.92;101727.47;5063896;28;20032;-84
2022/01/23 06:26:58;;;;;;;44.03;22.58;;;;;;;5.05;90.62;101732.88;5065423;28;20511;-86
2022/01/23 06:29:24;;;;;;;36.53;21.48;;;;;;;5.19;90.58;101729.41;5045209;28;20028;-86
2022/01/23 06:31:53;;;;;;;33.72;19.65;;;;;;;5.00;90.85;101734.25;5065498;28;20070;-86
2022/01/23 06:37:21;;;;;;;38.20;21.23;;;;;;;4.82;91.15;101733.72;5055487;28;20070;-85
2022/01/23 06:39:47;;;;;;;36.67;19.77;;;;;;;4.94;91.62;101728.75;5065062;28;20480;-86
2022/01/23 06:42:12;;;;;;;38.45;20.35;;;;;;;4.74;91.58;101740.84;5063737;28;20051;-86
2022/01/23 06:44:38;;;;;;;44.85;25.63;;;;;;;5.05;91.29;101732.88;5065367;28;20686;-86
2022/01/23 06:47:04;;;;;;;33.47;20.27;;;;;;;4.96;90.28;101732.13;5075380;28;20038;-86
2022/01/23 06:49:30;;;;;;;40.22;23.98;;;;;;;4.93;91.06;101741.41;5084253;28;20461;-85
2022/01/23 06:51:55;;;;;;;31.73;18.42;;;;;;;4.85;91.54;101734.19;5085617;28;20027;-85
2022/01/23 06:54:20;;;;;;;35.92;21.83;;;;;;;4.89;91.86;101746.34;5084098;28;20408;-85
2022/01/23 06:59:30;;;;;;;40.28;24.77;;;;;;;4.95;91.52;101747.50;5060110;28;20460;-86
2022/01/23 07:01:55;;;;;;;40.00;22.73;;;;;;;4.79;92.04;101743.88;5064387;28;20107;-85
2022/01/23 07:04:21;;;;;;;36.58;21.05;;;;;;;5.11;91.54;101743.00;5064307;28;20040;-86
2022/01/23 07:06:46;;;;;;;35.83;19.67;;;;;;;5.22;90.03;101749.84;5063273;28;20013;-85
2022/01/23 07:09:11;;;;;;;36.13;22.90;;;;;;;5.19;90.38;101751.06;5065091;28;20126;-86
2022/01/23 07:11:36;;;;;;;40.28;23.25;;;;;;;5.04;90.99;101748.28;5062576;28;20024;-85
2022/01/23 07:14:02;;;;;;;44.55;23.08;;;;;;;4.92;91.11;101764.09;5064629;28;20058;-85
2022/01/23 07:16:28;;;;;;;37.42;24.15;;;;;;;4.93;91.79;101760.34;5064883;28;20048;-86
2022/01/23 07:18:53;;;;;;;38.70;23.75;;;;;;;5.01;90.75;101771.13;5084730;28;20475;-86
2022/01/23 07:21:19;;;;;;;44.38;23.13;;;;;;;5.06;91.00;101775.16;5083642;28;20028;-86
2022/01/23 07:23:50;;;;;;;44.58;23.67;;;;;;;5.12;90.61;101769.03;5084439;28;20024;-86
2022/01/23 07:26:16;;;;;;;47.92;28.63;;;;;;;5.13;90.12;101779.66;5082868;28;20270;-85
2022/01/23 07:28:43;;;;;;;42.88;25.80;;;;;;;5.20;89.82;101774.38;5062493;28;20703;-85
2022/01/23 07:31:10;;;;;;;54.90;26.50;;;;;;;5.27;89.44;101779.09;5064734;28;20021;-85
2022/01/23 07:33:36;;;;;;;65.00;34.72;;;;;;;4.74;91.04;101784.09;5063051;28;20040;-86
2022/01/23 07:36:03;;;;;;;57.17;30.17;;;;;;;5.16;89.89;101783.88;5064928;28;20391;-85
2022/01/23 07:38:30;;;;;;;62.25;29.00;;;;;;;5.26;89.63;101783.63;5062775;28;20041;-86
2022/01/23 07:40:55;;;;;;;48.13;25.83;;;;;;;5.21;90.07;101795.00;5064223;28;20055;-85
2022/01/23 07:43:21;;;;;;;44.95;22.90;;;;;;;5.24;90.00;101808.16;5063946;28;20086;-86
2022/01/23 07:45:46;;;;;;;45.08;26.77;;;;;;;5.04;90.18;101804.22;5063232;28;20013;-86
2022/01/23 07:50:55;;;;;;;47.42;24.90;;;;;;;5.12;91.14;101812.28;5080538;28;20070;-85
2022/01/23 07:53:21;;;;;;;43.95;25.15;;;;;;;5.16;90.73;101802.81;5084573;28;20561;-85
2022/01/23 07:55:46;;;;;;;49.40;26.70;;;;;;;5.16;90.70;101804.66;5065233;28;20024;-86
2022/01/23 07:58:14;;;;;;;46.85;25.08;;;;;;;5.20;90.74;101809.53;5083905;28;20032;-85
2022/01/23 08:00:41;;;;;;;47.85;26.85;;;;;;;5.13;90.87;101803.16;5058773;28;20029;-86
2022/01/23 08:03:06;;;;;;;39.15;22.00;;;;;;;4.99;91.23;101802.91;5063149;28;20606;-86
2022/01/23 08:05:31;;;;;;;42.85;25.38;;;;;;;5.07;91.33;101806.56;5064585;28;20357;-86
2022/01/23 08:07:57;;;;;;;43.50;22.77;;;;;;;5.08;91.25;101809.09;5078343;28;20031;-86
2022/01/23 08:10:23;;;;;;;48.15;24.90;;;;;;;5.18;91.19;101808.88;5064265;28;20028;-85
2022/01/23 08:12:48;;;;;;;45.70;25.45;;;;;;;5.19;90.26;101805.13;5068754;28;20068;-85
2022/01/23 08:15:14;;;;;;;44.50;25.35;;;;;;;5.14;90.80;101812.97;5104309;28;20227;-85
2022/01/23 08:17:40;;;;;;;46.17;27.45;;;;;;;5.14;91.33;101818.38;5106901;28;20023;-86
2022/01/23 08:20:06;;;;;;;49.22;26.42;;;;;;;5.29;90.44;101823.84;5107333;28;20027;-86
2022/01/23 08:22:32;;;;;;;50.35;27.77;;;;;;;5.25;90.49;101820.66;5108934;28;20472;-84
2022/01/23 08:24:58;;;;;;;46.33;26.67;;;;;;;5.36;89.69;101821.28;5107210;28;20106;-84
2022/01/23 08:27:24;;;;;;;44.67;25.52;;;;;;;5.33;90.15;101819.75;5108270;28;20110;-86
2022/01/23 08:29:52;;;;;;;47.13;26.92;;;;;;;5.17;90.32;101823.41;5105846;28;20471;-86
2022/01/23 08:32:17;;;;;;;55.40;25.65;;;;;;;5.16;90.97;101832.56;5088519;28;20028;-85
2022/01/23 08:34:43;;;;;;;45.10;28.23;;;;;;;5.36;90.51;101826.69;5069197;28;20038;-85
2022/01/23 08:37:09;;;;;;;40.65;24.63;;;;;;;5.39;90.06;101829.00;5086910;28;20047;-85
2022/01/23 08:39:36;;;;;;;44.83;24.60;;;;;;;5.19;90.69;101829.47;5088154;28;20461;-86
2022/01/23 08:42:11;;;;;;;60.40;30.25;;;;;;;5.18;91.22;101830.50;5086632;28;20380;-84
2022/01/23 08:44:37;;;;;;;46.70;24.98;;;;;;;5.23;91.10;101833.50;5106792;28;20074;-84
2022/01/23 08:47:18;;;;;;;45.90;27.13;;;;;;;5.21;91.42;101835.56;5095444;28;20034;-84
2022/01/23 08:49:47;;;;;;;55.15;29.95;;;;;;;5.21;91.40;101840.97;5088430;28;20081;-84
2022/01/23 08:52:16;;;;;;;54.08;28.33;;;;;;;5.23;90.44;101838.06;5087501;28;20043;-86
2022/01/23 08:54:43;;;;;;;51.88;27.25;;;;;;;5.21;91.29;101846.38;5086631;28;20020;-85
2022/01/23 08:57:09;;;;;;;49.08;26.65;;;;;;;5.25;91.07;101846.84;5069219;28;20119;-86
2022/01/23 08:59:34;;;;;;;61.22;29.55;;;;;;;5.07;90.83;101853.38;5085826;28;20055;-85
2022/01/23 09:02:00;;;;;;;51.90;28.48;;;;;;;5.37;90.71;101844.59;5070223;28;20121;-85
2022/01/23 09:04:25;;;;;;;50.22;27.42;;;;;;;5.32;90.83;101847.00;5086452;28;20028;-86
2022/01/23 09:06:50;;;;;;;53.10;31.52;;;;;;;5.37;90.60;101845.44;5088307;28;20325;-86
2022/01/23 09:09:18;;;;;;;54.10;29.80;;;;;;;5.48;90.39;101846.91;5086937;28;20066;-86
2022/01/23 09:12:03;;;;;;;49.40;26.23;;;;;;;5.52;89.87;101846.53;5086665;28;20111;-85
2022/01/23 09:14:29;;;;;;;;;;;;;;;5.51;90.28;101850.28;5086887;28;20579;-85
2022/01/23 09:16:54;;;;;;;50.45;28.20;;;;;;;5.51;90.76;101836.75;5105776;28;19916;-85
2022/01/23 09:19:22;;;;;;;52.03;30.02;;;;;;;5.45;90.34;101841.81;5089646;28;20025;-85
2022/01/23 09:21:51;;;;;;;50.83;30.27;;;;;;;5.44;91.21;101839.31;5072070;28;20495;-86
2022/01/23 09:24:18;;;;;;;48.95;26.10;;;;;;;5.49;90.50;101843.16;5085884;28;20028;-85
2022/01/23 09:26:46;;;;;;;53.47;23.35;;;;;;;5.58;90.17;101841.25;5085169;28;20035;-86
2022/01/23 09:29:15;;;;;;;51.72;25.92;;;;;;;5.56;90.23;101842.44;5083911;28;20271;-86
2022/01/23 09:31:50;;;;;;;55.13;25.98;;;;;;;5.54;90.79;101844.47;5065709;28;20462;-86
2022/01/23 09:34:22;;;;;;;42.22;27.27;;;;;;;5.58;90.13;101841.25;5065372;28;20369;-84
2022/01/23 09:36:48;;;;;;;43.67;26.10;;;;;;;5.76;89.53;101831.97;5066293;28;20048;-86
2022/01/23 09:39:15;;;;;;;55.88;28.83;;;;;;;5.88;88.73;101845.91;5065162;28;20139;-86
2022/01/23 09:41:57;;;;;;;59.63;30.15;;;;;;;5.58;89.67;101845.81;5068093;28;20491;-85
2022/01/23 09:44:24;;;;;;;50.45;25.92;;;;;;;5.71;89.20;101847.94;5086555;28;20028;-85
2022/01/23 09:46:49;;;;;;;51.58;26.42;;;;;;;5.69;89.58;101841.84;5083812;28;20028;-85
2022/01/23 09:49:17;;;;;;;45.47;24.85;;;;;;;5.80;89.29;101845.97;5087069;28;20039;-85
2022/01/23 09:51:46;;;;;;;46.08;25.85;;;;;;;5.89;89.31;101853.03;5085839;28;20012;-86
2022/01/23 09:54:14;;;;;;;50.22;23.83;;;;;;;5.60;89.73;101858.16;5086464;28;20082;-85
2022/01/23 09:56:41;;;;;;;55.17;26.45;;;;;;;5.52;90.28;101850.09;5086159;28;20054;-85
2022/01/23 09:59:15;;;;;;;43.92;23.17;;;;;;;5.88;89.42;101856.75;5068023;28;20387;-85
2022/01/23 10:01:42;;;;;;;50.23;26.37;;;;;;;5.67;88.38;101854.72;5087021;28;20572;-85
2022/01/23 10:04:09;;;;;;;60.92;28.88;;;;;;;5.48;90.39;101867.69;5085312;28;20032;-86
2022/01/23 10:06:34;;;;;;;46.92;24.60;;;;;;;5.79;90.15;101858.69;5086689;28;20024;-85
2022/01/23 10:09:00;;;;;;;46.47;25.25;;;;;;;6.09;88.13;101860.66;5065806;28;20089;-86
2022/01/23 10:11:29;;;;;;;45.35;23.10;;;;;;;5.81;88.92;101867.47;5086307;28;20032;-86
2022/01/23 10:13:55;;;;;;;47.92;27.63;;;;;;;5.98;88.75;101861.09;5067102;28;20024;-86
2022/01/23 10:16:21;;;;;;;37.83;21.52;;;;;;;6.01;88.09;101858.84;5085642;28;20400;-86
2022/01/23 10:21:49;;;;;;;42.95;23.15;;;;;;;5.73;89.01;101865.66;5080673;28;20119;-86
2022/01/23 10:24:15;;;;;;;49.70;24.13;;;;;;;5.99;88.96;101863.59;5086032;28;20527;-85
2022/01/23 10:26:47;;;;;;;37.42;18.92;;;;;;;5.90;87.85;101865.53;5084942;28;20016;-85
2022/01/23 10:29:15;;;;;;;41.60;23.15;;;;;;;5.81;88.12;101872.91;5084910;28;20498;-85
2022/01/23 10:32:02;;;;;;;39.53;20.63;;;;;;;5.89;86.29;101871.13;5069172;28;20056;-86
2022/01/23 10:34:46;;;;;;;42.67;20.85;;;;;;;5.98;88.11;101867.31;5064483;28;20174;-86
2022/01/23 10:37:23;;;;;;;36.50;21.13;;;;;;;6.05;87.05;101862.03;5065004;28;20055;-85
2022/01/23 10:39:49;;;;;;;37.15;23.15;;;;;;;6.19;86.86;101852.28;5066009;28;20108;-85
2022/01/23 10:48:11;;;;;;;40.55;20.70;;;;;;;5.98;86.89;101848.38;5082270;28;20513;-86
2022/01/23 10:50:36;;;;;;;45.15;23.65;;;;;;;6.29;86.44;101855.56;5086141;28;20028;-86
2022/01/23 10:53:02;;;;;;;49.30;23.10;;;;;;;6.36;85.75;101842.13;5085589;28;20017;-86
2022/01/23 10:55:33;;;;;;;39.58;23.60;;;;;;;6.40;86.50;101846.16;5085145;28;20024;-85
2022/01/23 10:58:01;;;;;;;60.47;26.40;;;;;;;6.46;86.00;101851.84;5085736;28;20036;-85
2022/01/23 11:00:39;;;;;;;44.40;23.40;;;;;;;5.99;87.26;101855.47;5065553;28;20019;-85
2022/01/23 11:03:13;;;;;;;44.47;23.52;;;;;;;6.22;86.13;101851.09;5063462;28;20309;-86
2022/01/23 11:05:40;;;;;;;45.58;20.92;;;;;;;6.52;85.30;101845.69;5065936;28;20342;-86
2022/01/23 11:08:26;;;;;;;48.65;22.20;;;;;;;6.46;86.39;101836.44;5084861;28;20028;-86
2022/01/23 11:10:56;;;;;;;40.92;22.58;;;;;;;6.54;85.42;101836.34;5074961;28;20051;-85
2022/01/23 11:19:35;;;;;;;49.47;23.60;;;;;;;6.54;86.16;101839.06;5085879;28;20046;-86
2022/01/23 11:22:04;;;;;;;39.05;22.98;;;;;;;6.50;84.73;101840.47;5083485;28;20039;-85
2022/01/23 11:24:42;;;;;;;42.67;23.75;;;;;;;6.13;86.73;101843.03;5084776;28;20105;-85
2022/01/23 11:27:08;;;;;;;32.05;17.63;;;;;;;6.22;86.63;101841.09;5083600;28;20024;-85
2022/01/23 11:29:34;;;;;;;38.67;17.95;;;;;;;6.32;85.69;101830.00;5084419;28;20023;-85
2022/01/23 11:31:59;;;;;;;38.40;18.83;;;;;;;6.51;84.55;101822.31;5085291;28;20092;-86
2022/01/23 11:34:27;;;;;;;33.13;17.10;;;;;;;6.56;84.48;101819.91;5064278;28;20012;-86
2022/01/23 11:36:53;;;;;;;39.08;20.92;;;;;;;6.74;84.18;101816.81;5083212;28;20051;-86
2022/01/23 11:50:50;;;;;;;46.30;19.50;;;;;;;6.91;82.65;101811.19;5080544;28;20055;-85
2022/01/23 11:59:15;;;;;;;28.73;16.45;;;;;;;6.87;83.09;101810.72;5082070;28;20066;-86
2022/01/23 12:01:45;;;;;;;35.30;16.67;;;;;;;6.83;83.29;101814.84;5083187;28;20036;-86
2022/01/23 12:04:22;;;;;;;31.10;16.00;;;;;;;6.69;83.59;101813.81;5083091;28;20016;-86
2022/01/23 12:07:14;;;;;;;29.73;17.65;;;;;;;6.30;83.76;101807.66;5066041;28;20475;-86
2022/01/23 12:09:42;;;;;;;30.13;13.80;;;;;;;6.47;84.23;101818.31;5083212;28;20214;-85
2022/01/23 12:18:22;;;;;;;23.35;13.48;;;;;;;6.95;83.27;101803.50;5082724;28;20616;-85
2022/01/23 12:20:50;;;;;;;24.25;12.77;;;;;;;6.78;82.71;101801.00;5084366;28;20319;-86
2022/01/23 12:23:17;;;;;;;32.30;15.60;;;;;;;6.82;82.08;101794.16;5082896;28;20028;-87
2022/01/23 12:25:53;;;;;;;25.27;14.63;;;;;;;6.96;82.05;101795.16;5084303;28;20016;-85
2022/01/23 12:28:27;;;;;;;29.15;14.02;;;;;;;6.92;82.55;101798.44;5084205;28;20086;-86
2022/01/23 12:31:12;;;;;;;30.95;14.90;;;;;;;6.93;82.96;101800.13;5073548;28;20104;-85
2022/01/23 12:33:40;;;;;;;;;;;;;;;6.94;81.61;101793.66;5084006;28;20039;-85
2022/01/23 12:36:18;;;;;;;26.50;14.55;;;;;;;6.44;83.87;101797.00;5081546;28;19980;-86
2022/01/23 12:38:46;;;;;;;31.85;16.23;;;;;;;6.69;82.86;101791.28;5083533;28;20032;-86
2022/01/23 12:41:26;;;;;;;36.50;14.63;;;;;;;6.74;82.59;101797.81;5083919;28;20032;-86
2022/01/23 12:43:57;;;;;;;23.10;13.57;;;;;;;6.80;83.09;101793.50;5094214;28;20122;-85
2022/01/23 12:46:29;;;;;;;26.58;14.02;;;;;;;6.92;81.25;101790.31;5098404;28;20035;-85
2022/01/23 12:48:55;;;;;;;31.42;14.93;;;;;;;7.10;80.74;101796.16;5081700;28;20035;-86
2022/01/23 12:51:20;;;;;;;31.17;14.10;;;;;;;7.06;80.38;101786.72;5082777;28;20751;-85
2022/01/23 12:53:46;;;;;;;29.43;15.73;;;;;;;6.90;80.94;101787.78;5081826;28;20111;-86
2022/01/23 12:56:14;;;;;;;29.33;14.80;;;;;;;7.04;80.49;101782.53;5082926;28;20035;-86
2022/01/23 12:59:04;;;;;;;21.83;12.40;;;;;;;6.87;79.91;101780.91;5082732;28;20024;-86
2022/01/23 13:01:30;;;;;;;22.85;11.73;;;;;;;6.99;81.20;101780.41;5079583;28;20027;-85
2022/01/23 13:03:59;;;;;;;23.80;12.43;;;;;;;6.99;80.29;101777.69;5086389;28;20024;-86
2022/01/23 13:06:49;;;;;;;32.28;14.43;;;;;;;6.42;80.46;101776.38;5082695;28;20467;-86
2022/01/23 13:15:17;;;;;;;25.95;10.05;;;;;;;6.54;82.08;101773.16;5085222;28;20057;-86
2022/01/23 13:31:42;;;;;;;16.90;7.82;;;;;;;6.75;78.73;101769.66;5084677;28;20039;-85
2022/01/23 13:34:38;;;;;;;20.15;11.38;;;;;;;6.74;79.89;101775.28;5084333;28;20039;-85
2022/01/23 13:37:13;;;;;;;18.67;8.55;;;;;;;6.63;79.99;101774.75;5066162;28;20044;-86
2022/01/23 13:48:57;;;;;;;17.15;8.95;;;;;;;6.68;79.93;101768.75;5084538;28;20039;-85
2022/01/23 13:51:44;;;;;;;20.88;9.25;;;;;;;6.68;80.36;101779.59;5066393;28;20035;-86
2022/01/23 14:02:28;;;;;;;15.50;6.35;;;;;;;6.60;79.61;101766.16;5071846;28;20044;-86
2022/01/23 14:05:02;;;;;;;14.63;6.70;;;;;;;6.48;78.80;101765.78;5059652;28;20483;-86
2022/01/23 14:07:29;;;;;;;14.30;8.23;;;;;;;6.72;78.58;101770.06;5073697;28;20024;-86
2022/01/23 14:09:58;;;;;;;16.98;8.88;;;;;;;6.70;76.46;101765.84;5071745;28;20019;-86
2022/01/23 14:12:25;;;;;;;15.63;9.52;;;;;;;6.89;76.69;101759.81;5084092;28;20047;-86
2022/01/23 14:14:56;;;;;;;19.88;8.95;;;;;;;6.89;77.18;101765.25;5092876;28;20112;-86
2022/01/23 14:17:26;;;;;;;17.92;7.95;;;;;;;6.78;78.30;101768.47;5077387;28;20043;-84
2022/01/23 14:20:11;;;;;;;18.33;8.75;;;;;;;6.73;78.19;101765.50;5084197;28;20061;-85
2022/01/23 14:22:39;;;;;;;16.75;8.13;;;;;;;6.69;78.08;101764.19;5085032;28;20044;-83
2022/01/23 14:25:30;;;;;;;24.55;10.35;;;;;;;6.78;78.02;101760.31;5085666;28;20032;-85
2022/01/23 14:28:06;;;;;;;17.85;9.43;;;;;;;6.68;78.77;101766.06;5078263;28;20029;-85
2022/01/23 14:30:48;;;;;;;24.35;11.20;;;;;;;6.70;78.71;101766.69;5067237;28;20051;-84
2022/01/23 14:33:21;;;;;;;21.83;8.40;;;;;;;6.84;78.60;101764.13;5066113;28;20467;-85
2022/01/23 14:35:47;;;;;;;22.55;10.45;;;;;;;6.85;78.55;101763.13;5065986;28;20508;-85
2022/01/23 14:38:24;;;;;;;18.90;9.93;;;;;;;6.80;78.16;101760.13;5085104;28;20043;-85
2022/01/23 14:40:58;;;;;;;20.05;10.18;;;;;;;6.74;79.97;101764.44;5083183;28;20062;-85
2022/01/23 14:43:33;;;;;;;16.10;10.27;;;;;;;6.72;79.46;101770.06;5093323;28;20027;-84
2022/01/23 14:45:59;;;;;;;15.48;8.88;;;;;;;6.98;77.99;101767.84;5103133;28;20095;-86
2022/01/23 14:48:25;;;;;;;15.48;8.38;;;;;;;6.98;77.49;101767.84;5083897;28;20181;-85
2022/01/23 14:50:52;;;;;;;16.83;7.32;;;;;;;7.05;76.22;101757.94;5085692;28;20677;-84
2022/01/23 14:53:21;;;;;;;13.23;7.22;;;;;;;6.74;77.07;101759.03;5064727;28;20020;-85
2022/01/23 14:55:59;;;;;;;17.55;9.43;;;;;;;6.97;77.37;101760.75;5084551;28;20071;-85
2022/01/23 14:58:25;;;;;;;15.63;8.98;;;;;;;6.74;78.60;101753.59;5063034;28;20035;-85
2022/01/23 15:00:53;;;;;;;17.63;7.78;;;;;;;6.72;78.60;101758.38;5064801;28;20115;-84
2022/01/23 15:03:20;;;;;;;18.15;9.25;;;;;;;6.57;79.34;101756.53;5064126;28;20028;-86
2022/01/23 15:05:46;;;;;;;16.08;7.90;;;;;;;6.62;79.95;101759.53;5063437;28;20033;-85
2022/01/23 15:08:13;;;;;;;20.52;8.85;;;;;;;6.74;79.11;101756.31;5056781;28;20078;-84
2022/01/23 15:10:42;;;;;;;22.55;8.43;;;;;;;6.72;78.95;101758.38;5082697;28;20028;-85
2022/01/23 15:13:09;;;;;;;20.02;11.32;;;;;;;6.48;78.91;101752.25;5090102;28;20106;-84
2022/01/23 15:18:56;;;;;;;15.25;8.40;;;;;;;6.39;78.87;101754.19;5075195;28;20240;-85
2022/01/23 15:21:21;;;;;;;15.88;6.80;;;;;;;6.68;78.81;101747.06;5079510;28;20131;-85
2022/01/23 15:23:46;;;;;;;15.38;8.25;;;;;;;6.75;78.12;101747.16;5071636;28;20387;-85
2022/01/23 15:26:12;;;;;;;20.50;6.93;;;;;;;6.73;78.38;101752.75;5075741;28;20153;-86
2022/01/23 15:28:38;;;;;;;14.32;6.00;;;;;;;6.62;77.31;101754.09;5071929;28;20514;-85
2022/01/23 15:31:03;;;;;;;14.85;5.95;;;;;;;6.33;78.71;101757.66;5068226;28;20588;-85
2022/01/23 15:33:28;;;;;;;15.77;6.82;;;;;;;6.38;77.88;101758.81;5064809;28;20532;-85
2022/01/23 15:35:54;;;;;;;11.95;6.05;;;;;;;6.37;76.93;101765.22;5080424;28;20059;-85